createdAt,value
2019-04-22T00:01:13.655Z,13.30
2019-04-22T00:03:50.890Z,13.30
2019-04-22T00:06:39.046Z,13.20
2019-04-22T00:09:15.470Z,13.10
2019-04-22T00:11:45.691Z,13.10
2019-04-22T00:14:06.787Z,13.10
2019-04-22T00:16:56.663Z,13.10
2019-04-22T00:21:47.698Z,13.00
2019-04-22T00:24:18.743Z,12.90
2019-04-22T00:26:54.757Z,12.90
2019-04-22T00:29:57.836Z,12.80
2019-04-22T00:32:03.443Z,12.90
2019-04-22T00:34:35.921Z,12.80
2019-04-22T00:37:15.322Z,12.90
2019-04-22T00:42:15.330Z,12.80
2019-04-22T00:44:58.486Z,12.90
2019-04-22T00:47:23.197Z,12.90
2019-04-22T00:52:24.463Z,12.80
2019-04-22T00:55:00.506Z,12.80
2019-04-22T00:57:21.526Z,12.70
2019-04-22T01:00:03.402Z,12.70
2019-04-22T01:02:30.986Z,12.60
2019-04-22T01:05:01.303Z,12.50
2019-04-22T01:07:25.399Z,12.50
2019-04-22T01:09:58.563Z,12.40
2019-04-22T01:12:31.661Z,12.50
2019-04-22T01:15:00.871Z,12.40
2019-04-22T01:17:34.430Z,12.50
2019-04-22T01:20:13.927Z,12.50
2019-04-22T01:22:33.057Z,12.40
2019-04-22T01:25:02.432Z,12.50
2019-04-22T01:27:32.376Z,12.30
2019-04-22T01:29:59.986Z,12.30
2019-04-22T01:32:26.127Z,12.20
2019-04-22T01:35:03.512Z,12.20
2019-04-22T01:37:36.034Z,12.10
2019-04-22T01:40:16.637Z,12.10
2019-04-22T01:42:56.232Z,12.00
2019-04-22T01:45:22.813Z,11.90
2019-04-22T01:47:49.153Z,12.00
2019-04-22T01:50:23.902Z,11.70
2019-04-22T01:53:00.147Z,11.60
2019-04-22T01:55:34.763Z,11.70
2019-04-22T01:57:53.566Z,11.70
2019-04-22T02:00:15.252Z,11.60
2019-04-22T02:02:59.112Z,11.60
2019-04-22T02:05:31.561Z,11.60
2019-04-22T02:08:06.815Z,11.60
2019-04-22T02:10:39.224Z,11.60
2019-04-22T02:13:11.543Z,11.50
2019-04-22T02:15:46.517Z,11.50
2019-04-22T02:18:18.394Z,11.50
2019-04-22T02:20:40.233Z,11.50
2019-04-22T02:23:42.877Z,11.40
2019-04-22T02:25:59.326Z,11.40
2019-04-22T02:28:32.307Z,11.30
2019-04-22T02:33:57.939Z,11.30
2019-04-22T02:46:22.946Z,11.20
2019-04-22T02:48:53.961Z,11.10
2019-04-22T02:51:21.915Z,11.10
2019-04-22T02:56:23.007Z,11.00
2019-04-22T02:58:55.052Z,11.10
2019-04-22T03:01:24.920Z,11.00
2019-04-22T03:06:26.029Z,10.90
2019-04-22T03:08:59.629Z,10.90
2019-04-22T03:11:24.731Z,10.80
2019-04-22T03:13:57.817Z,10.70
2019-04-22T03:16:26.561Z,10.60
2019-04-22T03:21:23.931Z,10.60
2019-04-22T03:37:14.961Z,10.30
2019-04-22T03:39:31.123Z,10.40
2019-04-22T03:44:18.916Z,10.40
2019-04-22T03:47:02.422Z,10.40
2019-04-22T03:49:28.241Z,10.30
2019-04-22T03:51:56.725Z,10.20
2019-04-22T03:54:19.253Z,10.30
2019-04-22T03:57:22.065Z,10.30
2019-04-22T03:59:33.466Z,10.20
2019-04-22T04:04:35.461Z,10.10
2019-04-22T04:07:01.943Z,10.00
2019-04-22T04:11:59.346Z,10.00
2019-04-22T04:14:32.205Z,9.90
2019-04-22T04:16:56.239Z,10.00
2019-04-22T04:24:46.309Z,9.90
2019-04-22T04:29:45.701Z,9.90
2019-04-22T04:32:07.250Z,9.80
2019-04-22T04:37:07.404Z,9.90
2019-04-22T04:39:40.562Z,9.90
2019-04-22T04:42:18.788Z,9.80
2019-04-22T04:45:00.345Z,9.90
2019-04-22T04:47:21.303Z,9.90
2019-04-22T04:49:45.634Z,9.80
2019-04-22T04:52:17.066Z,9.80
2019-04-22T04:54:49.631Z,9.90
2019-04-22T04:57:17.418Z,9.90
2019-04-22T05:00:11.334Z,9.80
2019-04-22T05:02:20.176Z,9.80
2019-04-22T05:05:00.286Z,9.90
2019-04-22T05:09:44.718Z,10.20
2019-04-22T05:14:46.814Z,10.30
2019-04-22T05:19:47.778Z,10.40
2019-04-22T05:22:21.410Z,10.50
2019-04-22T05:24:51.820Z,10.50
2019-04-22T05:27:32.647Z,10.60
2019-04-22T05:30:10.064Z,10.60
2019-04-22T05:32:27.418Z,10.70
2019-04-22T05:34:52.913Z,10.80
2019-04-22T05:37:27.654Z,11.20
2019-04-22T05:40:06.589Z,11.30
2019-04-22T05:42:26.396Z,11.10
2019-04-22T05:44:55.442Z,11.20
2019-04-22T05:47:32.488Z,11.30
2019-04-22T05:50:03.582Z,11.40
2019-04-22T05:52:35.966Z,11.50
2019-04-22T05:55:09.691Z,11.60
2019-04-22T05:57:31.611Z,11.90
2019-04-22T06:00:14.588Z,12.40
2019-04-22T06:02:47.624Z,12.50
2019-04-22T06:05:14.880Z,12.60
2019-04-22T06:07:38.691Z,12.60
2019-04-22T06:10:19.796Z,12.60
2019-04-22T06:12:38.907Z,12.90
2019-04-22T06:15:16.581Z,13.10
2019-04-22T06:17:56.090Z,13.40
2019-04-22T06:20:19.846Z,13.50
2019-04-22T06:25:27.649Z,13.90
2019-04-22T06:27:54.397Z,14.10
2019-04-22T06:30:28.714Z,14.20
2019-04-22T06:33:02.465Z,14.20
2019-04-22T06:38:21.879Z,14.80
2019-04-22T06:40:31.804Z,15.30
2019-04-22T06:43:03.191Z,15.80
2019-04-22T06:45:33.735Z,15.90
2019-04-22T06:48:13.584Z,15.90
2019-04-22T06:50:41.649Z,16.40
2019-04-22T06:53:09.278Z,16.70
2019-04-22T06:55:41.447Z,16.30
2019-04-22T06:58:10.672Z,16.00
2019-04-22T07:00:42.834Z,15.80
2019-04-22T07:03:34.835Z,15.70
2019-04-22T07:05:46.413Z,16.00
2019-04-22T07:08:45.720Z,16.30
2019-04-22T07:10:47.658Z,15.80
2019-04-22T07:13:23.226Z,15.70
2019-04-22T07:20:59.915Z,16.00
2019-04-22T07:26:08.727Z,17.40
2019-04-22T07:28:37.804Z,17.70
2019-04-22T07:31:01.991Z,17.60
2019-04-22T07:33:32.764Z,17.40
2019-04-22T07:36:23.430Z,17.50
2019-04-22T07:40:59.373Z,17.90
2019-04-22T07:43:55.694Z,18.20
2019-04-22T07:46:07.157Z,19.00
2019-04-22T07:48:43.325Z,19.60
2019-04-22T07:51:07.692Z,19.80
2019-04-22T07:53:33.430Z,20.40
2019-04-22T07:56:11.853Z,20.50
2019-04-22T07:58:42.080Z,21.00
2019-04-22T08:01:14.125Z,21.70
2019-04-22T08:03:51.679Z,21.70
2019-04-22T08:06:29.637Z,21.20
2019-04-22T08:08:46.417Z,21.10
2019-04-22T08:13:46.898Z,21.50
2019-04-22T08:16:17.186Z,21.70
2019-04-22T08:18:45.637Z,22.20
2019-04-22T08:21:16.330Z,21.80
2019-04-22T08:23:57.562Z,21.70
2019-04-22T08:26:27.326Z,22.00
2019-04-22T08:29:03.365Z,22.60
2019-04-22T08:31:32.028Z,23.00
2019-04-22T08:34:01.610Z,23.20
2019-04-22T08:39:01.992Z,23.70
2019-04-22T08:44:00.970Z,23.30
2019-04-22T08:46:33.997Z,23.70
2019-04-22T08:49:05.432Z,23.90
2019-04-22T08:51:29.553Z,24.40
2019-04-22T08:54:07.877Z,23.70
2019-04-22T08:56:43.985Z,24.50
2019-04-22T09:01:40.796Z,24.80
2019-04-22T09:04:10.412Z,24.90
2019-04-22T09:07:02.546Z,25.10
2019-04-22T09:09:17.646Z,25.40
2019-04-22T09:11:47.077Z,25.30
2019-04-22T09:14:16.569Z,25.50
2019-04-22T09:17:06.656Z,25.60
2019-04-22T09:19:17.840Z,25.90
2019-04-22T09:21:56.377Z,25.20
2019-04-22T09:24:23.447Z,25.30
2019-04-22T09:27:10.161Z,25.90
2019-04-22T09:29:32.472Z,26.10
2019-04-22T09:32:00.306Z,25.80
2019-04-22T09:34:28.259Z,25.90
2019-04-22T09:37:07.981Z,25.50
2019-04-22T09:39:29.650Z,25.60
2019-04-22T09:42:05.089Z,26.00
2019-04-22T09:44:36.301Z,26.50
2019-04-22T09:47:07.352Z,26.30
2019-04-22T09:49:44.705Z,26.50
2019-04-22T09:52:10.167Z,26.80
2019-04-22T09:54:51.056Z,27.10
2019-04-22T09:57:15.514Z,27.40
2019-04-22T09:59:51.194Z,27.00
2019-04-22T10:02:25.031Z,26.80
2019-04-22T10:04:47.967Z,27.70
2019-04-22T10:07:23.863Z,26.80
2019-04-22T10:09:59.749Z,27.20
2019-04-22T10:12:30.492Z,27.80
2019-04-22T10:17:25.182Z,27.70
2019-04-22T10:19:53.735Z,27.90
2019-04-22T10:24:56.918Z,27.50
2019-04-22T10:27:29.218Z,27.20
2019-04-22T10:30:00.189Z,27.60
2019-04-22T10:32:33.487Z,28.20
2019-04-22T10:35:02.679Z,27.90
2019-04-22T10:37:28.162Z,27.70
2019-04-22T10:40:02.077Z,26.90
2019-04-22T10:42:31.290Z,27.00
2019-04-22T10:45:01.089Z,26.80
2019-04-22T10:47:31.960Z,26.60
2019-04-22T10:50:04.610Z,26.70
2019-04-22T10:52:37.179Z,26.70
2019-04-22T10:55:11.670Z,26.50
2019-04-22T10:57:42.201Z,26.80
2019-04-22T11:00:13.627Z,26.90
2019-04-22T11:02:43.786Z,27.00
2019-04-22T11:05:14.487Z,27.10
2019-04-22T11:07:51.682Z,26.90
2019-04-22T11:10:27.361Z,26.80
2019-04-22T11:12:47.157Z,27.00
2019-04-22T11:15:18.180Z,26.70
2019-04-22T11:17:49.496Z,27.10
2019-04-22T11:20:19.942Z,26.70
2019-04-22T11:22:51.119Z,26.80
2019-04-22T11:25:21.633Z,26.80
2019-04-22T11:27:51.444Z,26.90
2019-04-22T11:30:24.300Z,26.90
2019-04-22T11:32:54.171Z,26.90
2019-04-22T11:35:23.899Z,26.70
2019-04-22T11:37:54.782Z,26.70
2019-04-22T11:40:32.634Z,26.90
2019-04-22T11:42:59.660Z,27.10
2019-04-22T11:45:29.131Z,27.10
2019-04-22T11:47:59.518Z,27.30
2019-04-22T11:50:30.164Z,27.10
2019-04-22T11:53:00.764Z,27.40
2019-04-22T11:55:30.723Z,27.50
2019-04-22T11:58:01.046Z,27.10
2019-04-22T12:00:34.776Z,27.00
2019-04-22T12:03:07.104Z,27.00
2019-04-22T12:05:37.860Z,27.00
2019-04-22T12:08:09.258Z,27.00
2019-04-22T12:10:48.586Z,27.10
2019-04-22T12:13:12.726Z,27.00
2019-04-22T12:15:42.792Z,27.50
2019-04-22T12:18:13.116Z,27.50
2019-04-22T12:20:43.359Z,27.50
2019-04-22T12:23:14.841Z,27.30
2019-04-22T12:25:53.580Z,27.00
2019-04-22T12:28:17.101Z,27.30
2019-04-22T12:30:48.200Z,27.40
2019-04-22T12:33:17.058Z,27.70
2019-04-22T12:35:46.542Z,27.80
2019-04-22T12:38:17.041Z,27.50
2019-04-22T12:40:56.482Z,27.40
2019-04-22T12:43:23.805Z,27.50
2019-04-22T12:45:52.201Z,27.20
2019-04-22T12:48:23.246Z,27.40
2019-04-22T12:50:55.974Z,27.40
2019-04-22T12:53:27.564Z,27.60
2019-04-22T12:55:55.871Z,27.60
2019-04-22T12:58:25.642Z,27.60
2019-04-22T13:00:55.303Z,27.30
2019-04-22T13:03:26.100Z,27.90
2019-04-22T13:06:01.573Z,27.70
2019-04-22T13:08:31.717Z,28.00
2019-04-22T13:11:08.658Z,27.80
2019-04-22T13:13:34.393Z,27.70
2019-04-22T13:16:04.731Z,27.90
2019-04-22T13:18:42.045Z,28.00
2019-04-22T13:21:07.022Z,27.60
2019-04-22T13:23:41.304Z,27.70
2019-04-22T13:26:12.655Z,28.00
2019-04-22T13:28:43.128Z,27.60
2019-04-22T13:31:16.076Z,28.00
2019-04-22T13:33:46.714Z,27.90
2019-04-22T13:36:20.664Z,27.50
2019-04-22T13:38:49.202Z,27.40
2019-04-22T13:41:28.910Z,27.60
2019-04-22T13:43:49.338Z,27.80
2019-04-22T13:46:21.863Z,28.00
2019-04-22T13:49:14.559Z,27.80
2019-04-22T13:51:52.481Z,27.80
2019-04-22T13:56:49.152Z,28.00
2019-04-22T13:59:09.129Z,27.80
2019-04-22T14:01:34.715Z,27.70
2019-04-22T14:04:07.109Z,27.90
2019-04-22T14:06:36.768Z,27.70
2019-04-22T14:09:09.579Z,27.70
2019-04-22T14:11:49.316Z,27.60
2019-04-22T14:14:12.610Z,27.90
2019-04-22T14:16:46.904Z,28.20
2019-04-22T14:19:18.540Z,28.50
2019-04-22T14:21:49.730Z,28.00
2019-04-22T14:24:19.825Z,28.30
2019-04-22T14:27:03.582Z,28.10
2019-04-22T14:29:22.076Z,27.80
2019-04-22T14:32:03.837Z,28.20
2019-04-22T14:34:24.264Z,28.20
2019-04-22T14:36:55.254Z,28.00
2019-04-22T14:39:26.139Z,28.40
2019-04-22T14:42:14.063Z,28.40
2019-04-22T14:47:20.050Z,27.90
2019-04-22T14:49:52.853Z,27.70
2019-04-22T14:52:22.774Z,27.70
2019-04-22T14:54:45.914Z,27.70
2019-04-22T14:57:03.338Z,27.80
2019-04-22T14:59:32.951Z,28.00
2019-04-22T15:02:03.513Z,28.00
2019-04-22T15:04:33.127Z,27.60
2019-04-22T15:07:03.065Z,28.00
2019-04-22T15:09:32.622Z,27.90
2019-04-22T15:12:11.019Z,27.80
2019-04-22T15:14:33.233Z,27.80
2019-04-22T15:17:11.008Z,27.80
2019-04-22T15:19:45.569Z,27.60
2019-04-22T15:22:15.069Z,27.30
2019-04-22T15:24:45.051Z,27.50
2019-04-22T15:27:16.365Z,27.40
2019-04-22T15:29:47.321Z,27.70
2019-04-22T15:32:17.618Z,27.50
2019-04-22T15:34:49.110Z,27.60
2019-04-22T15:37:20.345Z,27.70
2019-04-22T15:39:49.884Z,27.80
2019-04-22T15:42:25.736Z,27.70
2019-04-22T15:44:51.684Z,27.40
2019-04-22T15:47:20.805Z,27.40
2019-04-22T15:49:50.272Z,27.40
2019-04-22T15:52:30.292Z,27.60
2019-04-22T15:54:53.785Z,27.60
2019-04-22T15:57:22.540Z,27.50
2019-04-22T16:00:06.796Z,27.50
2019-04-22T16:02:25.654Z,27.30
2019-04-22T16:04:55.168Z,27.40
2019-04-22T16:07:25.997Z,27.60
2019-04-22T16:09:55.601Z,27.40
2019-04-22T16:12:30.748Z,27.60
2019-04-22T16:14:58.784Z,27.30
2019-04-22T16:17:26.541Z,27.30
2019-04-22T16:19:57.180Z,27.50
2019-04-22T16:22:28.817Z,27.70
2019-04-22T16:25:02.338Z,27.90
2019-04-22T16:27:32.056Z,28.10
2019-04-22T16:30:01.743Z,28.10
2019-04-22T16:32:31.946Z,28.20
2019-04-22T16:35:02.595Z,28.20
2019-04-22T16:37:32.765Z,28.30
2019-04-22T16:40:03.073Z,28.30
2019-04-22T16:42:41.305Z,28.40
2019-04-22T16:45:04.531Z,28.50
2019-04-22T16:47:35.440Z,28.30
2019-04-22T16:50:08.096Z,28.10
2019-04-22T16:52:37.670Z,27.80
2019-04-22T16:55:08.748Z,27.80
2019-04-22T16:57:39.726Z,27.70
2019-04-22T17:00:11.250Z,27.50
2019-04-22T17:03:00.635Z,27.20
2019-04-22T17:05:37.728Z,27.10
2019-04-22T17:08:08.205Z,26.80
2019-04-22T17:10:37.983Z,26.70
2019-04-22T17:13:11.959Z,26.70
2019-04-22T17:15:39.657Z,26.60
2019-04-22T17:18:09.638Z,27.00
2019-04-22T17:20:40.474Z,26.20
2019-04-22T17:23:11.554Z,26.40
2019-04-22T17:25:40.546Z,26.20
2019-04-22T17:28:10.094Z,26.00
2019-04-22T17:30:39.745Z,25.70
2019-04-22T17:33:10.510Z,25.30
2019-04-22T17:35:41.099Z,25.00
2019-04-22T17:38:20.997Z,24.30
2019-04-22T17:40:56.830Z,24.00
2019-04-22T17:43:52.297Z,23.90
2019-04-22T17:46:24.701Z,23.80
2019-04-22T17:48:57.610Z,23.70
2019-04-22T17:51:39.652Z,23.60
2019-04-22T17:54:02.397Z,23.40
2019-04-22T17:56:32.511Z,23.40
2019-04-22T17:59:02.613Z,23.40
2019-04-22T18:01:35.602Z,23.20
2019-04-22T18:03:51.373Z,23.10
2019-04-22T18:06:44.169Z,23.00
2019-04-22T18:09:08.100Z,22.90
2019-04-22T18:11:56.483Z,22.90
2019-04-22T18:14:37.906Z,22.70
2019-04-22T18:16:41.453Z,22.50
2019-04-22T18:19:15.390Z,22.30
2019-04-22T18:21:41.212Z,22.30
2019-04-22T18:24:08.122Z,22.30
2019-04-22T18:26:49.028Z,22.20
2019-04-22T18:29:17.455Z,22.00
2019-04-22T18:31:43.254Z,21.90
2019-04-22T18:34:16.943Z,21.80
2019-04-22T18:36:53.711Z,21.70
2019-04-22T18:39:31.623Z,21.70
2019-04-22T18:41:57.412Z,21.60
2019-04-22T18:44:37.392Z,21.50
2019-04-22T18:47:03.718Z,21.50
2019-04-22T18:49:39.199Z,21.30
2019-04-22T18:52:25.801Z,21.20
2019-04-22T18:55:02.507Z,21.30
2019-04-22T18:57:32.630Z,21.10
2019-04-22T18:59:53.894Z,21.00
2019-04-22T19:02:21.542Z,20.90
2019-04-22T19:05:01.360Z,20.90
2019-04-22T19:07:44.305Z,20.80
2019-04-22T19:10:27.393Z,20.70
2019-04-22T19:12:52.624Z,20.70
2019-04-22T19:15:18.916Z,20.50
2019-04-22T19:17:54.394Z,20.50
2019-04-22T19:20:23.813Z,20.50
2019-04-22T19:22:55.421Z,20.40
2019-04-22T19:25:15.373Z,20.40
2019-04-22T19:27:48.408Z,20.30
2019-04-22T19:30:21.909Z,20.30
2019-04-22T19:33:02.781Z,20.20
2019-04-22T19:35:22.541Z,20.20
2019-04-22T19:37:53.670Z,20.00
2019-04-22T19:40:57.566Z,19.90
2019-04-22T19:43:22.972Z,19.90
2019-04-22T19:45:50.619Z,19.90
2019-04-22T19:48:27.092Z,19.80
2019-04-22T19:51:00.099Z,19.70
2019-04-22T19:53:32.101Z,19.70
2019-04-22T19:55:58.594Z,19.70
2019-04-22T19:58:26.170Z,19.60
2019-04-22T20:01:13.473Z,19.60
2019-04-22T20:04:03.447Z,19.60
2019-04-22T20:06:35.044Z,19.50
2019-04-22T20:09:13.580Z,19.50
2019-04-22T20:11:43.793Z,19.40
2019-04-22T20:14:16.893Z,19.30
2019-04-22T20:16:46.269Z,19.30
2019-04-22T20:19:24.949Z,19.40
2019-04-22T20:21:51.255Z,19.20
2019-04-22T20:24:12.863Z,19.20
2019-04-22T20:27:16.369Z,19.00
2019-04-22T20:29:31.112Z,18.90
2019-04-22T20:31:59.106Z,18.90
2019-04-22T20:34:35.512Z,19.00
2019-04-22T20:39:38.072Z,18.80
2019-04-22T20:42:16.555Z,18.70
2019-04-22T20:44:39.738Z,18.70
2019-04-22T20:47:07.732Z,18.60
2019-04-22T20:49:41.534Z,18.50
2019-04-22T20:52:13.651Z,18.40
2019-04-22T20:54:40.588Z,18.40
2019-04-22T20:57:09.452Z,18.30
2019-04-22T20:59:37.175Z,18.30
2019-04-22T21:02:07.251Z,18.20
2019-04-22T21:04:38.290Z,18.20
2019-04-22T21:07:13.851Z,18.20
2019-04-22T21:09:43.210Z,18.10
2019-04-22T21:12:14.906Z,18.00
2019-04-22T21:14:57.296Z,18.00
2019-04-22T21:17:17.994Z,17.90
2019-04-22T21:20:15.524Z,17.80
2019-04-22T21:22:26.666Z,17.80
2019-04-22T21:24:53.593Z,17.70
2019-04-22T21:27:28.800Z,17.60
2019-04-22T21:29:53.275Z,17.50
2019-04-22T21:32:31.287Z,17.50
2019-04-22T21:35:09.955Z,17.50
2019-04-22T21:37:37.769Z,17.40
2019-04-22T21:39:59.072Z,17.40
2019-04-22T21:42:41.022Z,17.30
2019-04-22T21:45:03.322Z,17.20
2019-04-22T21:47:47.731Z,17.10
2019-04-22T21:50:28.162Z,17.10
2019-04-22T21:52:40.693Z,17.00
2019-04-22T21:55:14.475Z,17.10
2019-04-22T21:57:55.540Z,17.00
2019-04-22T22:00:32.774Z,17.00
2019-04-22T22:03:00.643Z,16.90
2019-04-22T22:05:20.083Z,16.90
2019-04-22T22:07:51.087Z,16.80
2019-04-22T22:10:33.880Z,16.70
2019-04-22T22:13:06.623Z,16.70
2019-04-22T22:15:30.273Z,16.70
2019-04-22T22:18:06.843Z,16.60
2019-04-22T22:20:45.336Z,16.60
2019-04-22T22:23:16.084Z,16.50
2019-04-22T22:25:34.972Z,16.40
2019-04-22T22:28:29.436Z,16.30
2019-04-22T22:30:47.659Z,16.30
2019-04-22T22:33:10.954Z,16.30
2019-04-22T22:35:40.830Z,16.30
2019-04-22T22:38:11.977Z,16.20
2019-04-22T22:40:28.569Z,16.20
2019-04-22T22:42:58.994Z,16.20
2019-04-22T22:45:37.193Z,16.10
2019-04-22T22:48:26.684Z,16.10
2019-04-22T22:50:50.829Z,16.10
2019-04-22T22:53:31.019Z,16.00
2019-04-22T22:55:54.782Z,16.00
2019-04-22T22:58:27.762Z,16.00
2019-04-22T23:00:53.588Z,16.00
2019-04-22T23:03:46.017Z,15.90
2019-04-22T23:06:03.192Z,15.80
2019-04-22T23:08:34.369Z,15.70
2019-04-22T23:11:22.288Z,15.60
2019-04-22T23:13:38.939Z,15.50
2019-04-22T23:16:00.929Z,15.60
2019-04-22T23:18:16.219Z,15.50
2019-04-22T23:20:49.603Z,15.60
2019-04-22T23:23:38.176Z,15.60
2019-04-22T23:26:07.334Z,15.50
2019-04-22T23:28:29.832Z,15.50
2019-04-22T23:31:05.507Z,15.40
2019-04-22T23:33:57.251Z,15.30
2019-04-22T23:36:27.905Z,15.20
2019-04-22T23:39:13.939Z,15.30
2019-04-22T23:41:48.565Z,15.20
2019-04-22T23:44:13.853Z,15.20
2019-04-22T23:46:41.521Z,15.10
2019-04-22T23:49:16.254Z,15.00
2019-04-22T23:51:55.346Z,15.00
2019-04-22T23:54:20.416Z,15.00
2019-04-22T23:56:43.231Z,15.00
